Time;durP1;ratioP1;P1;durP2;ratioP2;P2;SDS_P1;SDS_P2;PMS_P1;PMS_P2;Temp;Humidity;BMP_temperature;BMP_pressure;BME280_temperature;BME280_humidity;BME280_pressure;Samples;Min_cycle;Max_cycle;Signal;HPM_P1;HPM_P2
2022/08/29 00:01:48;;;;;;;1.70;1.60;;;;;;;25.05;65.14;97665.47;5063255;28;20221;-31
2022/08/29 00:04:14;;;;;;;1.70;1.60;;;;;;;25.04;64.95;97663.75;5063441;28;20221;-31
2022/08/29 00:06:41;;;;;;;1.80;1.70;;;;;;;25.05;65.52;97664.63;5062694;28;20244;-32
2022/08/29 00:09:08;;;;;;;1.90;1.80;;;;;;;25.05;65.04;97682.63;5061268;28;20240;-31
2022/08/29 00:11:34;;;;;;;1.63;1.53;;;;;;;25.05;65.23;97668.03;5058983;28;20270;-31
2022/08/29 00:14:10;;;;;;;1.70;1.60;;;;;;;25.05;65.52;97672.34;5079731;28;20198;-31
2022/08/29 00:16:48;;;;;;;1.70;1.60;;;;;;;25.05;65.14;97668.03;5063343;28;20247;-32
2022/08/29 00:19:15;;;;;;;1.53;1.43;;;;;;;25.04;65.36;97671.47;5060409;28;20205;-31
2022/08/29 00:21:42;;;;;;;1.80;1.70;;;;;;;25.05;65.23;97662.91;5066383;28;20324;-32
2022/08/29 00:24:08;;;;;;;1.67;1.57;;;;;;;25.05;65.55;97669.78;5058285;28;20221;-31
2022/08/29 00:26:35;;;;;;;1.93;1.83;;;;;;;25.05;65.15;97662.06;5062551;28;20280;-31
2022/08/29 00:29:01;;;;;;;1.70;1.60;;;;;;;25.04;65.93;97663.75;5061950;28;20689;-32
2022/08/29 00:31:28;;;;;;;1.90;1.80;;;;;;;25.05;65.29;97667.19;5058800;28;20256;-31
2022/08/29 00:33:56;;;;;;;1.90;1.80;;;;;;;24.99;65.21;97651.66;5052779;28;20560;-31
2022/08/29 00:36:24;;;;;;;1.50;1.40;;;;;;;25.03;65.32;97672.31;5073430;28;20292;-31
2022/08/29 00:38:53;;;;;;;1.73;1.63;;;;;;;25.05;65.52;97667.19;5055704;28;20212;-31
2022/08/29 00:41:23;;;;;;;1.60;1.50;;;;;;;25.02;65.16;97667.13;5064415;28;20283;-31
2022/08/29 00:43:50;;;;;;;1.70;1.60;;;;;;;25.05;65.14;97674.91;5061489;28;20264;-31
2022/08/29 00:46:47;;;;;;;1.80;1.70;;;;;;;25.04;65.52;97673.16;5060289;28;20679;-31
2022/08/29 00:49:32;;;;;;;1.70;1.60;;;;;;;25.05;65.35;97675.75;5053604;28;20228;-31
2022/08/29 00:52:03;;;;;;;1.87;1.77;;;;;;;24.94;65.29;97651.56;5057679;28;20310;-31
2022/08/29 00:54:30;;;;;;;1.80;1.70;;;;;;;25.05;65.37;97665.47;5046217;28;20241;-31
2022/08/29 00:56:57;;;;;;;1.50;1.40;;;;;;;25.03;65.47;97662.03;5061981;28;20243;-31
2022/08/29 00:59:30;;;;;;;1.87;1.77;;;;;;;25.05;65.54;97662.06;5064609;28;20613;-31
2022/08/29 01:01:57;;;;;;;1.80;1.70;;;;;;;25.04;65.36;97663.75;5079967;28;20310;-31
2022/08/29 01:04:23;;;;;;;1.60;1.50;;;;;;;25.05;65.15;97662.06;5071073;28;20224;-31
2022/08/29 01:06:50;;;;;;;1.80;1.70;;;;;;;25.00;65.07;97656.81;5063211;28;20283;-32
2022/08/29 01:09:17;;;;;;;1.87;1.77;;;;;;;25.04;65.61;97671.47;5061044;28;20315;-31
2022/08/29 01:14:28;;;;;;;1.60;1.50;;;;;;;25.03;65.87;97669.75;5063489;28;20228;-31
2022/08/29 01:16:56;;;;;;;1.57;1.47;;;;;;;25.03;65.20;97669.75;5067762;28;20258;-31
2022/08/29 01:19:27;;;;;;;1.90;1.80;;;;;;;24.96;65.21;97660.16;5062324;28;20322;-31
2022/08/29 01:22:34;;;;;;;1.90;1.80;;;;;;;25.00;65.51;97667.13;5068153;28;20311;-32
2022/08/29 01:25:06;;;;;;;1.70;1.60;;;;;;;25.04;65.16;97674.03;5030953;28;20292;-31
2022/08/29 01:27:34;;;;;;;1.70;1.60;;;;;;;25.04;65.14;97678.31;5055103;28;20232;-31
2022/08/29 01:30:00;;;;;;;2.03;1.93;;;;;;;25.04;65.31;97676.59;5051750;28;20200;-32
2022/08/29 01:32:27;;;;;;;1.77;1.67;;;;;;;25.04;65.33;97684.31;5062678;28;20298;-31
2022/08/29 01:34:54;;;;;;;1.67;1.57;;;;;;;25.05;65.32;97677.47;5052726;28;20291;-31
2022/08/29 01:37:20;;;;;;;1.63;1.53;;;;;;;24.97;65.60;97661.03;5060485;28;20706;-31
2022/08/29 01:39:47;;;;;;;1.80;1.70;;;;;;;25.05;65.17;97682.63;5052980;28;20747;-32
2022/08/29 01:42:16;;;;;;;1.70;1.60;;;;;;;25.05;65.18;97673.19;5055151;28;20312;-31
2022/08/29 01:44:51;;;;;;;1.93;1.80;;;;;;;25.04;65.40;97679.19;5054778;28;20327;-31
2022/08/29 01:47:18;;;;;;;1.70;1.60;;;;;;;25.04;65.38;97679.19;5055612;28;20200;-31
2022/08/29 01:49:44;;;;;;;1.90;1.80;;;;;;;25.05;65.11;97674.91;5061736;28;20227;-31
2022/08/29 01:52:11;;;;;;;1.80;1.70;;;;;;;25.04;65.24;97668.88;5063923;28;20673;-31
2022/08/29 01:54:41;;;;;;;1.80;1.70;;;;;;;25.04;65.54;97666.31;5057274;28;20201;-31
2022/08/29 01:57:08;;;;;;;1.83;1.73;;;;;;;25.04;65.36;97660.31;5063119;28;20687;-31
2022/08/29 01:59:39;;;;;;;1.70;1.60;;;;;;;25.02;65.62;97657.69;5059573;28;20586;-31
2022/08/29 02:02:14;;;;;;;1.70;1.60;;;;;;;25.04;65.32;97648.31;5070086;28;20247;-31
2022/08/29 02:04:42;;;;;;;1.70;1.60;;;;;;;25.04;65.25;97656.03;5056735;28;20224;-31
2022/08/29 02:07:08;;;;;;;1.97;1.80;;;;;;;25.04;65.54;97650.88;5069710;28;20246;-32
2022/08/29 02:09:38;;;;;;;2.20;2.00;;;;;;;25.05;65.61;97652.59;5057823;28;20200;-31
2022/08/29 02:12:11;;;;;;;2.00;1.90;;;;;;;24.90;65.38;97624.06;5061048;28;20220;-31
2022/08/29 02:14:38;;;;;;;1.60;1.50;;;;;;;25.00;65.53;97646.53;5068464;28;20269;-31
2022/08/29 02:17:05;;;;;;;1.80;1.70;;;;;;;25.06;65.44;97659.50;5071126;28;20299;-31
2022/08/29 02:19:32;;;;;;;1.80;1.70;;;;;;;25.05;65.56;97642.31;5059129;28;20296;-31
2022/08/29 02:21:58;;;;;;;1.60;1.50;;;;;;;25.05;65.53;97644.91;5056113;28;20311;-31
2022/08/29 02:24:25;;;;;;;1.83;1.73;;;;;;;25.06;65.55;97658.63;5057065;28;20307;-31
2022/08/29 02:26:52;;;;;;;1.80;1.70;;;;;;;25.05;65.13;97655.19;5068197;28;20570;-32
2022/08/29 02:29:19;;;;;;;1.97;1.87;;;;;;;25.05;65.24;97652.59;5069479;28;20230;-31
2022/08/29 02:31:46;;;;;;;1.80;1.70;;;;;;;25.06;65.19;97645.78;5063298;28;20630;-31
2022/08/29 02:34:12;;;;;;;2.03;1.93;;;;;;;25.05;65.29;97662.91;5068725;28;20196;-32
2022/08/29 02:36:39;;;;;;;1.90;1.80;;;;;;;25.05;65.53;97644.06;5070137;28;20236;-31
2022/08/29 02:39:07;;;;;;;2.00;1.90;;;;;;;25.05;65.54;97650.03;5053801;28;20327;-31
2022/08/29 02:41:34;;;;;;;1.80;1.70;;;;;;;25.06;65.23;97645.78;5063552;28;20264;-31
2022/08/29 02:44:01;;;;;;;2.00;1.90;;;;;;;25.05;65.59;97665.47;5055850;28;20263;-31
2022/08/29 02:46:27;;;;;;;2.07;1.97;;;;;;;25.07;65.23;97655.22;5063455;28;20240;-31
2022/08/29 02:48:54;;;;;;;1.93;1.83;;;;;;;25.06;65.49;97646.66;5059991;28;20204;-31
2022/08/29 02:51:28;;;;;;;1.70;1.60;;;;;;;25.06;65.54;97646.66;5054696;28;20256;-31
2022/08/29 02:53:55;;;;;;;1.90;1.80;;;;;;;25.00;65.50;97633.69;5059870;28;20322;-31
2022/08/29 02:56:22;;;;;;;1.90;1.80;;;;;;;25.05;65.46;97644.91;5064103;28;20319;-31
2022/08/29 02:58:49;;;;;;;2.20;2.10;;;;;;;25.06;65.45;97643.19;5057200;28;20236;-31
2022/08/29 03:01:19;;;;;;;1.90;1.80;;;;;;;25.06;65.55;97656.06;5065314;28;20217;-31
2022/08/29 03:03:46;;;;;;;2.13;1.70;;;;;;;25.05;65.10;97655.19;5054965;28;20256;-32
2022/08/29 03:06:13;;;;;;;2.00;1.90;;;;;;;25.06;65.19;97659.50;5076923;28;20290;-31
2022/08/29 03:08:39;;;;;;;1.87;1.77;;;;;;;25.04;65.73;97653.47;5067948;28;20232;-31
2022/08/29 03:11:06;;;;;;;2.03;1.93;;;;;;;25.06;65.04;97662.09;5060128;28;20255;-32
2022/08/29 03:13:33;;;;;;;1.80;1.70;;;;;;;25.06;65.44;97661.19;5059452;28;20235;-31
2022/08/29 03:16:01;;;;;;;2.10;1.90;;;;;;;25.07;65.51;97662.91;5067259;28;20311;-31
2022/08/29 03:18:28;;;;;;;2.07;1.97;;;;;;;25.06;65.15;97664.66;5065002;28;20648;-31
2022/08/29 03:20:55;;;;;;;2.00;1.90;;;;;;;25.05;65.21;97657.75;5075606;28;20342;-31
2022/08/29 03:23:21;;;;;;;2.00;1.90;;;;;;;25.07;65.73;97663.81;5068035;28;20685;-31
2022/08/29 03:25:48;;;;;;;1.90;1.80;;;;;;;25.06;65.34;97661.19;5067989;28;20650;-31
2022/08/29 03:28:14;;;;;;;1.90;1.80;;;;;;;25.07;65.38;97660.34;5055589;28;20396;-31
2022/08/29 03:30:41;;;;;;;2.10;2.00;;;;;;;25.06;65.19;97669.78;5061323;28;20205;-32
2022/08/29 03:33:08;;;;;;;1.93;1.83;;;;;;;25.07;65.33;97673.22;5099064;22;20251;-23
2022/08/29 03:35:37;;;;;;;2.00;1.90;;;;;;;25.01;65.23;97668.84;5086447;28;20207;-23
2022/08/29 03:38:04;;;;;;;2.17;2.07;;;;;;;25.07;65.44;97675.78;5080219;28;20308;-23
2022/08/29 03:40:31;;;;;;;2.10;2.00;;;;;;;25.07;65.18;97665.50;5072771;28;20210;-23
2022/08/29 03:42:58;;;;;;;2.00;1.90;;;;;;;23.93;65.48;97468.91;5063802;28;20690;-23
2022/08/29 03:45:25;;;;;;;1.80;1.70;;;;;;;24.97;65.48;97651.63;5069221;28;20259;-23
2022/08/29 03:47:52;;;;;;;2.37;2.27;;;;;;;25.07;65.48;97668.94;5069799;28;20481;-23
2022/08/29 03:50:19;;;;;;;2.10;2.00;;;;;;;25.07;65.21;97665.50;5055908;28;20295;-23
2022/08/29 03:52:46;;;;;;;2.03;1.93;;;;;;;25.07;65.57;97668.06;5068855;28;20880;-23
2022/08/29 03:55:13;;;;;;;2.00;1.90;;;;;;;25.06;65.20;97672.38;5061034;28;20306;-23
2022/08/29 03:57:39;;;;;;;1.90;1.80;;;;;;;25.04;65.14;97671.47;5063241;28;20293;-23
2022/08/29 04:00:11;;;;;;;1.83;1.73;;;;;;;25.06;65.50;97674.06;5065964;28;20231;-23
2022/08/29 04:02:38;;;;;;;1.80;1.70;;;;;;;25.06;65.42;97679.19;5051990;28;20256;-23
2022/08/29 04:05:08;;;;;;;2.17;2.07;;;;;;;25.05;65.21;97678.31;5064956;28;20228;-24
2022/08/29 04:07:40;;;;;;;1.90;1.80;;;;;;;24.98;65.08;97668.78;5061358;28;20227;-24
2022/08/29 04:10:08;;;;;;;1.80;1.70;;;;;;;25.06;65.28;97684.34;5068965;28;20291;-23
2022/08/29 04:12:34;;;;;;;1.87;1.77;;;;;;;25.05;65.27;97683.47;5059902;28;20618;-22
2022/08/29 04:15:01;;;;;;;2.10;2.00;;;;;;;25.05;65.24;97691.19;5051613;28;20205;-23
2022/08/29 04:17:27;;;;;;;2.20;2.03;;;;;;;25.05;65.31;97695.47;5058333;28;20204;-23
2022/08/29 04:19:54;;;;;;;1.77;1.67;;;;;;;25.05;65.42;97698.06;5050183;28;20201;-23
2022/08/29 04:22:20;;;;;;;2.13;2.03;;;;;;;25.05;65.16;97703.19;5055280;28;20260;-23
2022/08/29 04:24:47;;;;;;;2.10;2.00;;;;;;;25.06;65.28;97694.63;5059341;28;20236;-24
2022/08/29 04:27:14;;;;;;;1.83;1.73;;;;;;;25.05;65.30;97701.47;5050275;28;20284;-23
2022/08/29 04:29:47;;;;;;;2.00;1.90;;;;;;;25.05;65.22;97703.19;5067728;28;20235;-23
2022/08/29 04:32:15;;;;;;;1.80;1.70;;;;;;;25.05;65.59;97700.63;5068767;28;20282;-23
2022/08/29 04:34:41;;;;;;;2.00;1.90;;;;;;;25.05;65.67;97696.31;5058736;28;20746;-23
2022/08/29 04:37:08;;;;;;;1.87;1.77;;;;;;;25.05;65.58;97696.31;5056758;28;20236;-22
2022/08/29 04:39:34;;;;;;;2.00;1.90;;;;;;;25.05;65.38;97698.06;5056686;28;20635;-23
2022/08/29 04:42:01;;;;;;;2.27;2.17;;;;;;;24.99;65.33;97693.66;5065532;28;20263;-23
2022/08/29 04:44:27;;;;;;;1.90;1.80;;;;;;;25.05;65.32;97719.47;5053806;28;20315;-22
2022/08/29 04:46:54;;;;;;;2.00;1.90;;;;;;;25.06;65.29;97712.63;5056576;28;20287;-23
2022/08/29 04:49:21;;;;;;;1.90;1.80;;;;;;;25.05;65.32;97716.91;5062917;28;20629;-23
2022/08/29 04:51:47;;;;;;;2.10;2.00;;;;;;;25.06;65.58;97718.66;5067971;28;20662;-22
2022/08/29 04:54:14;;;;;;;1.80;1.70;;;;;;;25.06;65.46;97716.09;5050453;28;20737;-23
2022/08/29 04:56:41;;;;;;;2.00;1.90;;;;;;;25.07;65.54;97712.66;5060754;28;20668;-23
2022/08/29 04:59:13;;;;;;;2.10;2.00;;;;;;;25.05;65.43;97711.75;5048573;28;20201;-23
2022/08/29 05:01:40;;;;;;;1.80;1.70;;;;;;;25.06;65.59;97717.78;5062020;28;20224;-22
2022/08/29 05:04:08;;;;;;;1.93;1.83;;;;;;;25.07;65.73;97728.09;5055049;28;20221;-25
2022/08/29 05:06:40;;;;;;;2.03;1.93;;;;;;;25.07;65.45;97722.94;5068059;28;20212;-23
2022/08/29 05:09:06;;;;;;;2.20;2.10;;;;;;;25.08;65.27;97726.41;5056645;28;20271;-23
2022/08/29 05:11:33;;;;;;;2.00;1.90;;;;;;;25.08;65.30;97726.41;5051574;28;20742;-23
2022/08/29 05:14:00;;;;;;;2.20;2.10;;;;;;;25.08;65.60;97728.97;5065194;28;20417;-23
2022/08/29 05:16:28;;;;;;;1.80;1.70;;;;;;;25.08;65.61;97729.81;5059290;28;20244;-23
2022/08/29 05:18:55;;;;;;;2.10;2.00;;;;;;;25.08;65.35;97724.69;5052394;28;20701;-24
2022/08/29 05:21:25;;;;;;;2.10;2.00;;;;;;;25.08;65.36;97719.53;5057898;28;20691;-23
2022/08/29 05:23:55;;;;;;;1.73;1.63;;;;;;;25.09;65.36;97715.25;5059076;28;20635;-23
2022/08/29 05:26:22;;;;;;;2.20;2.00;;;;;;;25.09;65.48;97721.28;5066904;28;20837;-23
2022/08/29 05:28:48;;;;;;;2.03;1.93;;;;;;;25.10;65.58;97719.56;5057746;28;20749;-24
2022/08/29 05:31:15;;;;;;;1.90;1.80;;;;;;;25.10;65.66;97733.28;5061209;28;20200;-25
2022/08/29 05:33:42;;;;;;;1.97;1.87;;;;;;;25.11;65.64;97735.03;5055415;28;20255;-23
2022/08/29 05:36:09;;;;;;;2.00;1.90;;;;;;;25.11;65.50;97739.31;5056547;28;20303;-23
2022/08/29 05:38:36;;;;;;;2.07;1.97;;;;;;;25.11;65.34;97739.31;5051890;28;20247;-24
2022/08/29 05:41:02;;;;;;;2.00;1.90;;;;;;;25.12;65.12;97738.47;5057673;28;20529;-23
2022/08/29 05:43:29;;;;;;;2.10;2.00;;;;;;;25.11;65.20;97740.16;5060815;28;20263;-22
2022/08/29 05:46:02;;;;;;;3.07;1.87;;;;;;;25.00;65.65;97717.66;5061351;28;20753;-23
2022/08/29 05:48:30;;;;;;;2.00;1.90;;;;;;;25.13;65.27;97748.78;5054973;28;20227;-23
2022/08/29 05:50:57;;;;;;;2.10;2.00;;;;;;;25.13;65.53;97741.91;5062086;28;20347;-23
2022/08/29 05:53:23;;;;;;;1.90;1.80;;;;;;;25.13;65.79;97751.34;5060399;28;20263;-23
2022/08/29 05:55:50;;;;;;;2.00;1.90;;;;;;;25.13;65.33;97747.91;5067386;28;20287;-22
2022/08/29 05:58:17;;;;;;;1.90;1.80;;;;;;;25.13;65.46;97753.06;5062225;28;20664;-22
2022/08/29 06:00:45;;;;;;;1.90;1.80;;;;;;;25.14;65.00;97762.53;5059087;28;20227;-22
2022/08/29 06:03:11;;;;;;;2.20;2.10;;;;;;;25.07;65.56;97746.09;5067659;28;20673;-23
2022/08/29 06:05:38;;;;;;;1.90;1.80;;;;;;;25.14;65.17;97752.22;5061153;28;20306;-23
2022/08/29 06:08:05;;;;;;;1.90;1.80;;;;;;;25.13;65.42;97753.94;5058158;28;20320;-22
2022/08/29 06:10:32;;;;;;;2.10;2.00;;;;;;;25.13;65.57;97756.50;5053082;28;20244;-23
2022/08/29 06:12:59;;;;;;;2.00;1.90;;;;;;;25.09;65.76;97757.28;5060839;28;20385;-23
2022/08/29 06:15:28;;;;;;;1.80;1.70;;;;;;;25.14;65.30;97765.94;5067404;28;20673;-23
2022/08/29 06:17:55;;;;;;;1.90;1.80;;;;;;;25.16;65.31;97765.97;5051440;28;20208;-22
2022/08/29 06:20:21;;;;;;;2.20;2.10;;;;;;;25.16;65.50;97760.81;5066132;28;20295;-23
2022/08/29 06:22:48;;;;;;;2.20;2.10;;;;;;;25.16;65.04;97763.41;5059344;28;20262;-23
2022/08/29 06:25:14;;;;;;;2.23;2.13;;;;;;;25.16;65.52;97760.81;5067009;28;20756;-23
2022/08/29 06:28:01;;;;;;;2.10;2.00;;;;;;;25.16;65.13;97765.97;5067303;28;20222;-23
2022/08/29 06:30:30;;;;;;;2.27;2.17;;;;;;;25.09;64.98;97759.88;5053102;28;20760;-23
2022/08/29 06:32:57;;;;;;;1.90;1.80;;;;;;;25.15;65.16;97766.81;5055169;28;20730;-22
2022/08/29 06:35:24;;;;;;;1.87;1.77;;;;;;;25.14;64.81;97773.66;5050229;28;20660;-24
2022/08/29 06:37:50;;;;;;;2.27;2.13;;;;;;;25.16;65.40;97780.56;5064093;28;20255;-23
2022/08/29 06:40:17;;;;;;;2.10;2.00;;;;;;;25.15;65.45;97777.09;5047855;28;20255;-23
2022/08/29 06:42:43;;;;;;;2.00;1.90;;;;;;;25.08;65.13;97758.09;5064731;28;20262;-28
2022/08/29 06:45:10;;;;;;;2.00;1.90;;;;;;;25.15;65.32;97761.69;5059051;28;20518;-24
2022/08/29 06:47:37;;;;;;;2.00;1.90;;;;;;;25.15;65.12;97766.81;5055779;28;20295;-23
2022/08/29 06:50:05;;;;;;;2.10;2.00;;;;;;;25.14;65.30;97772.81;5067819;28;20229;-22
2022/08/29 06:52:31;;;;;;;2.20;2.00;;;;;;;25.15;65.06;97769.38;5067355;28;20259;-22
2022/08/29 06:55:01;;;;;;;2.07;1.97;;;;;;;25.16;65.18;97770.28;5057658;28;20264;-23
2022/08/29 06:57:27;;;;;;;2.13;2.03;;;;;;;25.16;65.29;97770.28;5065565;28;20303;-23
2022/08/29 06:59:54;;;;;;;2.10;2.00;;;;;;;25.16;65.09;97780.56;5057914;28;20624;-23
2022/08/29 07:02:20;;;;;;;2.00;1.90;;;;;;;25.14;65.07;97771.09;5064292;28;20649;-24
2022/08/29 07:04:47;;;;;;;1.90;1.80;;;;;;;25.15;65.00;97777.09;5055640;28;20229;-23
2022/08/29 07:07:14;;;;;;;2.00;1.90;;;;;;;25.14;65.35;97773.66;5057682;28;20292;-32
2022/08/29 07:09:40;;;;;;;2.20;2.10;;;;;;;25.15;65.42;97779.69;5066274;28;20295;-22
2022/08/29 07:12:07;;;;;;;2.10;2.00;;;;;;;25.14;65.33;97783.94;5066670;28;20335;-23
2022/08/29 07:14:33;;;;;;;2.33;2.20;;;;;;;25.16;65.38;97785.69;5063831;28;20734;-23
2022/08/29 07:17:00;;;;;;;2.10;2.00;;;;;;;25.15;65.30;97787.41;5059222;28;20911;-23
2022/08/29 07:19:27;;;;;;;2.13;2.03;;;;;;;25.14;65.33;97778.81;5064915;28;20229;-25
2022/08/29 07:21:53;;;;;;;2.10;2.00;;;;;;;25.08;65.18;97770.97;5060804;28;20816;-23
2022/08/29 07:24:23;;;;;;;2.07;1.97;;;;;;;25.14;65.57;97775.38;5054451;28;20235;-23
2022/08/29 07:26:50;;;;;;;2.03;1.93;;;;;;;25.14;65.34;97775.38;5056759;28;20216;-23
2022/08/29 07:29:18;;;;;;;1.97;1.87;;;;;;;25.13;65.06;97771.94;5059734;28;20233;-23
2022/08/29 07:31:45;;;;;;;1.83;1.73;;;;;;;25.14;65.05;97783.94;5054767;28;20323;-23
2022/08/29 07:34:11;;;;;;;2.40;2.20;;;;;;;25.15;65.49;97777.09;5059084;28;20303;-30
2022/08/29 07:36:38;;;;;;;2.20;2.10;;;;;;;25.15;65.37;97787.41;5061507;28;20293;-23
2022/08/29 07:39:07;;;;;;;2.10;2.00;;;;;;;25.14;65.57;97783.09;5062444;28;20265;-24
2022/08/29 07:41:33;;;;;;;2.10;2.00;;;;;;;25.08;65.21;97768.41;5062240;28;20251;-23
2022/08/29 07:44:00;;;;;;;2.10;2.00;;;;;;;25.14;65.47;97786.53;5066352;28;20677;-23
2022/08/29 07:46:27;;;;;;;2.00;1.90;;;;;;;25.14;65.17;97788.25;5063109;28;20229;-24
2022/08/29 07:48:53;;;;;;;2.10;2.00;;;;;;;25.14;65.10;97786.53;5063489;28;20576;-23
2022/08/29 07:51:21;;;;;;;2.10;2.00;;;;;;;24.96;65.32;97754.47;5056609;28;20291;-24
2022/08/29 07:53:48;;;;;;;2.30;2.20;;;;;;;25.14;65.14;97793.38;5069183;28;20200;-23
2022/08/29 07:56:26;;;;;;;2.10;2.00;;;;;;;25.15;65.43;97792.53;5064659;28;20289;-24
2022/08/29 07:58:53;;;;;;;2.13;2.03;;;;;;;25.16;65.38;97790.84;5052858;28;20295;-24
2022/08/29 08:01:19;;;;;;;2.10;2.00;;;;;;;25.13;65.39;97788.22;5060042;28;20220;-22
2022/08/29 08:03:48;;;;;;;2.27;2.07;;;;;;;25.15;65.50;97802.81;5054674;28;20235;-22
2022/08/29 08:06:16;;;;;;;1.90;1.80;;;;;;;25.14;65.47;97799.38;5067054;28;20826;-23
2022/08/29 08:08:42;;;;;;;2.10;2.00;;;;;;;25.15;65.20;97795.13;5069009;28;20208;-22
2022/08/29 08:11:09;;;;;;;2.17;1.97;;;;;;;25.14;65.20;97801.94;5055475;28;20201;-23
2022/08/29 08:13:36;;;;;;;2.20;2.10;;;;;;;25.14;65.52;97806.25;5061097;28;20240;-22
2022/08/29 08:16:10;;;;;;;2.03;1.93;;;;;;;25.08;65.31;97788.97;5063628;28;20275;-23
2022/08/29 08:18:37;;;;;;;2.17;2.07;;;;;;;25.14;64.96;97808.81;5060942;28;20231;-23
2022/08/29 08:21:04;;;;;;;2.37;2.20;;;;;;;25.16;65.53;97806.28;5056160;28;20284;-23
2022/08/29 08:23:31;;;;;;;2.10;1.90;;;;;;;25.15;65.66;97807.97;5064581;28;20255;-23
2022/08/29 08:25:57;;;;;;;1.90;1.80;;;;;;;25.14;65.23;97809.66;5058395;28;20314;-23
2022/08/29 08:28:25;;;;;;;1.93;1.83;;;;;;;25.03;65.10;97792.31;5056952;28;20315;-22
2022/08/29 08:30:51;;;;;;;2.17;2.07;;;;;;;25.14;65.53;97813.97;5067079;28;20238;-22
2022/08/29 08:33:18;;;;;;;2.07;1.97;;;;;;;25.14;65.06;97817.38;5056112;28;20322;-23
2022/08/29 08:35:44;;;;;;;1.93;1.83;;;;;;;25.16;65.48;97816.56;5054480;28;20267;-23
2022/08/29 08:38:12;;;;;;;2.10;2.00;;;;;;;25.14;64.97;97824.25;5055354;28;20577;-23
2022/08/29 08:40:45;;;;;;;2.40;2.20;;;;;;;25.15;65.05;97823.41;5052698;28;20294;-24
2022/08/29 08:43:13;;;;;;;2.10;2.00;;;;;;;25.08;64.93;97806.97;5060765;28;20221;-22
2022/08/29 08:45:46;;;;;;;2.37;2.20;;;;;;;25.14;65.36;97827.66;5063842;28;20227;-22
2022/08/29 08:48:33;;;;;;;2.30;2.17;;;;;;;25.15;65.46;97831.13;5058219;28;20632;-23
2022/08/29 08:51:04;;;;;;;1.97;1.87;;;;;;;25.14;65.38;97817.38;5052036;28;20275;-23
2022/08/29 08:53:36;;;;;;;2.10;2.00;;;;;;;25.10;65.49;97818.19;5061241;28;20329;-23
2022/08/29 08:56:21;;;;;;;2.00;1.90;;;;;;;25.14;65.30;97819.97;5056777;28;20220;-23
2022/08/29 08:58:48;;;;;;;2.10;2.00;;;;;;;25.14;65.46;97821.69;5055415;28;20208;-23
2022/08/29 09:01:25;;;;;;;2.50;2.30;;;;;;;25.14;65.39;97817.38;5066658;28;20622;-23
2022/08/29 09:04:07;;;;;;;2.20;2.10;;;;;;;25.14;65.39;97819.13;5067822;28;20722;-23
2022/08/29 09:06:58;;;;;;;2.33;2.17;;;;;;;25.14;65.13;97822.53;5065456;28;20228;-23
2022/08/29 09:09:56;;;;;;;2.40;2.30;;;;;;;25.14;65.11;97821.69;5055820;28;20236;-24
2022/08/29 09:12:45;;;;;;;2.30;2.20;;;;;;;25.14;65.27;97813.97;5062040;28;20724;-22
2022/08/29 09:15:19;;;;;;;2.30;2.07;;;;;;;24.95;65.13;97783.56;5022000;28;20643;-25
2022/08/29 09:18:01;;;;;;;2.17;2.07;;;;;;;25.14;65.41;97811.41;5060949;28;20295;-24
2022/08/29 09:20:30;;;;;;;1.83;1.73;;;;;;;25.13;65.07;97812.22;5050166;28;20235;-23
2022/08/29 09:23:01;;;;;;;2.10;2.00;;;;;;;25.02;65.17;97788.84;5032039;28;20706;-23
2022/08/29 09:25:29;;;;;;;2.10;2.00;;;;;;;25.03;65.13;97793.19;5053527;28;20286;-23
2022/08/29 09:27:59;;;;;;;2.00;1.90;;;;;;;25.13;65.44;97807.94;5057591;28;20299;-23
2022/08/29 09:30:27;;;;;;;2.10;2.00;;;;;;;25.13;65.59;97809.63;5052986;28;20291;-23
2022/08/29 09:33:13;;;;;;;2.10;2.00;;;;;;;25.13;65.15;97805.38;5090903;22;20261;-31
2022/08/29 09:35:48;;;;;;;2.10;2.00;;;;;;;25.13;65.53;97807.94;5088931;28;20215;-31
2022/08/29 09:38:22;;;;;;;2.00;1.90;;;;;;;25.14;65.44;97809.66;5076865;28;20222;-31
2022/08/29 09:40:53;;;;;;;2.20;2.10;;;;;;;25.13;65.34;97810.53;5074377;28;20210;-31
2022/08/29 09:43:23;;;;;;;2.20;2.10;;;;;;;25.13;65.45;97807.94;5084878;28;20211;-31
2022/08/29 09:46:17;;;;;;;2.20;2.10;;;;;;;25.14;65.39;97811.41;5090176;28;20305;-31
2022/08/29 09:48:49;;;;;;;2.10;2.00;;;;;;;25.09;65.38;97805.28;5086545;28;20290;-31
2022/08/29 09:51:23;;;;;;;2.40;2.20;;;;;;;25.14;65.35;97812.25;5088956;28;20729;-31
2022/08/29 09:54:13;;;;;;;2.00;1.90;;;;;;;25.13;65.10;97813.09;5088723;28;20281;-31
2022/08/29 09:57:10;;;;;;;2.30;2.20;;;;;;;25.14;65.17;97816.53;5089921;28;20286;-31
2022/08/29 09:59:44;;;;;;;2.00;1.90;;;;;;;25.14;65.10;97819.97;5084399;28;20232;-31
2022/08/29 10:02:20;;;;;;;2.20;2.10;;;;;;;25.13;65.52;97818.22;5083556;28;20216;-31
2022/08/29 10:05:01;;;;;;;2.20;2.10;;;;;;;25.14;65.19;97816.53;5087871;28;20204;-31
2022/08/29 10:07:31;;;;;;;2.17;2.07;;;;;;;25.05;65.04;97800.94;5090769;28;20207;-31
2022/08/29 10:10:12;;;;;;;2.17;2.07;;;;;;;25.14;65.51;97819.13;5089628;28;20222;-31
2022/08/29 10:12:45;;;;;;;2.20;2.10;;;;;;;25.14;65.51;97816.53;5082786;28;20266;-31
2022/08/29 10:15:17;;;;;;;2.07;1.97;;;;;;;25.13;65.04;97805.38;5080453;28;20300;-32
2022/08/29 10:18:22;;;;;;;2.10;2.00;;;;;;;25.13;65.35;97807.94;5078828;28;20666;-31
2022/08/29 10:20:55;;;;;;;2.20;2.10;;;;;;;25.13;65.21;97802.81;5092963;28;20195;-32
2022/08/29 10:23:36;;;;;;;2.60;2.40;;;;;;;25.08;65.56;97791.53;5094156;28;20258;-32
2022/08/29 10:26:35;;;;;;;3.10;2.00;;;;;;;25.13;65.08;97795.94;5086713;28;20254;-31
2022/08/29 10:29:04;;;;;;;2.00;1.90;;;;;;;25.13;65.28;97802.81;5084062;28;20428;-31
2022/08/29 10:31:35;;;;;;;2.13;2.03;;;;;;;25.13;65.52;97807.06;5089562;28;20282;-31
2022/08/29 10:34:04;;;;;;;2.00;1.90;;;;;;;25.14;65.29;97801.09;5083121;28;20313;-32
2022/08/29 10:36:34;;;;;;;2.20;2.10;;;;;;;25.11;65.04;97793.34;5094345;28;20199;-31
2022/08/29 10:39:10;;;;;;;2.10;2.00;;;;;;;25.13;65.23;97795.09;5075467;28;20298;-32
2022/08/29 10:42:11;;;;;;;2.40;2.30;;;;;;;25.13;65.04;97798.50;5094094;28;20234;-31
2022/08/29 10:45:15;;;;;;;2.00;1.90;;;;;;;25.13;65.05;97792.50;5092596;28;20234;-31
2022/08/29 10:47:51;;;;;;;2.13;2.03;;;;;;;25.13;65.22;97792.50;5093907;28;20220;-31
2022/08/29 10:50:55;;;;;;;2.10;2.00;;;;;;;25.13;65.43;97791.63;5085712;28;20237;-31
2022/08/29 10:53:25;;;;;;;2.20;2.10;;;;;;;25.13;64.97;97786.50;5084465;28;20668;-31
2022/08/29 10:56:00;;;;;;;2.10;2.00;;;;;;;25.13;65.21;97787.38;5080471;28;20324;-31
2022/08/29 10:58:50;;;;;;;2.07;1.97;;;;;;;25.13;65.18;97784.78;5094073;28;20234;-31
2022/08/29 11:01:28;;;;;;;2.10;2.00;;;;;;;25.13;65.50;97805.38;5089172;28;20267;-31
2022/08/29 11:04:04;;;;;;;2.10;2.00;;;;;;;25.13;65.50;97783.91;5074828;28;20258;-31
2022/08/29 11:06:44;;;;;;;2.00;1.90;;;;;;;25.05;65.19;97781.19;5087486;28;20775;-31
2022/08/29 11:09:16;;;;;;;2.17;2.07;;;;;;;25.13;65.26;97791.63;5084735;28;20234;-31
2022/08/29 11:11:45;;;;;;;2.30;2.10;;;;;;;25.10;65.19;97783.84;5090558;28;20231;-31
2022/08/29 11:14:22;;;;;;;2.30;2.10;;;;;;;25.13;65.31;97785.66;5070851;28;20790;-31
2022/08/29 11:16:49;;;;;;;2.43;2.23;;;;;;;25.13;65.22;97783.91;5089680;28;20238;-31
2022/08/29 11:19:36;;;;;;;1.90;1.80;;;;;;;25.13;65.62;97776.19;5071355;28;20204;-31
2022/08/29 11:22:24;;;;;;;2.20;2.10;;;;;;;25.14;65.55;97775.38;5077575;28;20772;-31
2022/08/29 11:25:09;;;;;;;2.17;2.07;;;;;;;25.13;65.55;97782.22;5093060;28;20231;-31
2022/08/29 11:27:48;;;;;;;2.13;2.03;;;;;;;25.13;65.45;97771.06;5088435;28;20293;-31
2022/08/29 11:30:19;;;;;;;2.23;2.13;;;;;;;25.14;64.97;97775.38;5088656;28;20234;-31
2022/08/29 11:32:56;;;;;;;2.00;1.90;;;;;;;25.13;65.46;97774.50;5091626;28;20351;-31
2022/08/29 11:36:04;;;;;;;2.07;1.97;;;;;;;25.13;65.57;97779.66;5090950;28;20227;-31
2022/08/29 11:38:58;;;;;;;1.73;1.63;;;;;;;25.04;65.40;97764.03;5072101;28;20230;-31
2022/08/29 11:41:28;;;;;;;1.90;1.80;;;;;;;25.12;65.10;97766.75;5071539;28;20300;-31
2022/08/29 11:44:28;;;;;;;2.23;2.10;;;;;;;25.13;65.10;97779.66;5084587;28;20574;-31
2022/08/29 11:46:54;;;;;;;1.90;1.80;;;;;;;25.12;65.47;97774.47;5090584;28;20231;-31
2022/08/29 11:49:42;;;;;;;1.80;1.70;;;;;;;25.13;65.35;97768.47;5093074;28;20203;-31
2022/08/29 11:52:11;;;;;;;2.13;2.03;;;;;;;25.13;65.52;97766.78;5084859;28;20261;-31
2022/08/29 11:54:38;;;;;;;2.17;2.07;;;;;;;25.13;65.19;97769.38;5093016;28;20203;-32